createdAt,value
2024-03-14T00:00:13.179Z,8.33
2024-03-14T00:28:46.930Z,8.16
2024-03-14T00:57:22.668Z,7.75
2024-03-14T01:26:04.588Z,7.7
2024-03-14T01:54:49.548Z,7.65
2024-03-14T02:23:31.218Z,7.67
2024-03-14T02:52:08.683Z,7.58
2024-03-14T03:20:46.504Z,7.27
2024-03-14T03:49:31.232Z,6.96
2024-03-14T04:18:14.998Z,6.89
2024-03-14T04:46:46.170Z,6.76
2024-03-14T05:15:25.379Z,6.54
2024-03-14T05:44:01.886Z,6.25
2024-03-14T06:12:27.389Z,6.43
2024-03-14T06:40:57.458Z,6.94
2024-03-14T07:09:29.456Z,7.84
2024-03-14T07:38:03.080Z,15.29
2024-03-14T08:06:53.361Z,20.55
2024-03-14T08:35:35.396Z,13.09
2024-03-14T09:04:00.824Z,12.99
2024-03-14T09:32:38.382Z,13.08
2024-03-14T10:01:29.120Z,13.62
2024-03-14T10:30:08.525Z,14.41
2024-03-14T10:58:41.910Z,14.64
2024-03-14T11:27:24.471Z,15.47
2024-03-14T11:56:07.067Z,16.21
2024-03-14T12:24:20.874Z,16.77
2024-03-14T12:52:50.041Z,17.03
2024-03-14T13:21:33.471Z,17.63
2024-03-14T13:50:09.651Z,17.75
2024-03-14T14:18:40.195Z,18.04
2024-03-14T14:47:10.331Z,17.95
2024-03-14T15:15:32.212Z,17.83
2024-03-14T15:43:55.275Z,17.39
2024-03-14T16:12:17.323Z,16.98
2024-03-14T16:40:37.180Z,16.44
2024-03-14T17:09:06.438Z,15.71
2024-03-14T17:37:35.739Z,14.89
2024-03-14T22:22:23.331Z,10.32
2024-03-14T22:50:47.812Z,10.17
2024-03-14T23:19:22.668Z,9.61
2024-03-14T23:48:07.822Z,9.64
